sensor_id;sensor_type;location;lat;lon;timestamp;pressure;altitude;pressure_sealevel;temperature;humidity
1776;BME280;885;42.626;23.200;2023-02-24T00:00:58;159273.78;;;5.46;100.00
1776;BME280;885;42.626;23.200;2023-02-24T00:03:33;163740.25;;;5.68;100.00
1776;BME280;885;42.626;23.200;2023-02-24T00:06:01;164135.09;;;5.78;100.00
1776;BME280;885;42.626;23.200;2023-02-24T00:08:30;166690.75;;;5.69;100.00
1776;BME280;885;42.626;23.200;2023-02-24T00:10:57;166729.19;;;5.83;100.00
1776;BME280;885;42.626;23.200;2023-02-24T00:13:25;166762.22;;;5.95;100.00
1776;BME280;885;42.626;23.200;2023-02-24T00:15:59;166781.47;;;6.02;100.00
1776;BME280;885;42.626;23.200;2023-02-24T00:18:26;166803.47;;;6.10;100.00
1776;BME280;885;42.626;23.200;2023-02-24T00:20:53;166754.00;;;5.92;100.00
1776;BME280;885;42.626;23.200;2023-02-24T00:23:22;166754.00;;;5.92;100.00
1776;BME280;885;42.626;23.200;2023-02-24T00:25:57;166778.72;;;6.01;100.00
1776;BME280;885;42.626;23.200;2023-02-24T00:28:27;166828.22;;;6.19;100.00
1776;BME280;885;42.626;23.200;2023-02-24T00:30:54;166869.47;;;6.34;100.00
1776;BME280;885;42.626;23.200;2023-02-24T00:33:21;166888.69;;;6.41;100.00
1776;BME280;885;42.626;23.200;2023-02-24T00:35:48;166905.16;;;6.48;100.00
1776;BME280;885;42.626;23.200;2023-02-24T00:38:16;166910.56;;;6.51;100.00
1776;BME280;885;42.626;23.200;2023-02-24T00:40:45;166137.84;;;6.37;100.00
1776;BME280;885;42.626;23.200;2023-02-24T00:43:12;166762.22;;;5.95;100.00
1776;BME280;885;42.626;23.200;2023-02-24T00:45:41;166800.75;;;6.09;100.00
1776;BME280;885;42.626;23.200;2023-02-24T00:48:07;166835.09;;;6.22;100.00
1776;BME280;885;42.626;23.200;2023-02-24T00:50:35;166857.09;;;6.30;100.00
1776;BME280;885;42.626;23.200;2023-02-24T00:53:04;166872.19;;;6.35;100.00
1776;BME280;885;42.626;23.200;2023-02-24T00:55:31;166826.84;;;6.19;100.00
1776;BME280;885;42.626;23.200;2023-02-24T00:58:01;166866.69;;;6.33;100.00
1776;BME280;885;42.626;23.200;2023-02-24T01:00:29;166814.44;;;6.14;100.00
1776;BME280;885;42.626;23.200;2023-02-24T01:03:01;166822.72;;;6.17;100.00
1776;BME280;885;42.626;23.200;2023-02-24T01:05:28;166802.06;;;6.10;100.00
1776;BME280;885;42.626;23.200;2023-02-24T01:07:56;166810.34;;;6.13;100.00
1776;BME280;885;42.626;23.200;2023-02-24T01:10:22;166817.22;;;6.15;100.00
1776;BME280;885;42.626;23.200;2023-02-24T01:12:51;166785.59;;;6.04;100.00
1776;BME280;885;42.626;23.200;2023-02-24T01:15:20;166833.72;;;6.21;100.00
1776;BME280;885;42.626;23.200;2023-02-24T01:17:47;166884.56;;;6.40;100.00
1776;BME280;885;42.626;23.200;2023-02-24T01:20:16;166902.44;;;6.47;100.00
1776;BME280;885;42.626;23.200;2023-02-24T01:22:45;166873.56;;;6.36;100.00
1776;BME280;885;42.626;23.200;2023-02-24T01:25:14;166890.06;;;6.42;100.00
1776;BME280;885;42.626;23.200;2023-02-24T01:27:41;166891.44;;;6.43;100.00
1776;BME280;885;42.626;23.200;2023-02-24T01:30:10;166898.34;;;6.45;100.00
1776;BME280;885;42.626;23.200;2023-02-24T01:32:40;166945.03;;;6.62;100.00
1776;BME280;885;42.626;23.200;2023-02-24T01:35:08;166879.06;;;6.38;100.00
1776;BME280;885;42.626;23.200;2023-02-24T01:37:37;166870.81;;;6.35;100.00
1776;BME280;885;42.626;23.200;2023-02-24T01:40:05;166874.97;;;6.36;100.00
1776;BME280;885;42.626;23.200;2023-02-24T01:42:42;166859.81;;;6.31;100.00
1776;BME280;885;42.626;23.200;2023-02-24T01:45:15;166789.69;;;6.05;100.00
1776;BME280;885;42.626;23.200;2023-02-24T01:47:42;166815.84;;;6.15;100.00
1776;BME280;885;42.626;23.200;2023-02-24T01:50:11;166819.94;;;6.16;100.00
1776;BME280;885;42.626;23.200;2023-02-24T01:52:42;166844.72;;;6.25;100.00
1776;BME280;885;42.626;23.200;2023-02-24T01:55:13;166752.63;;;5.92;100.00
1776;BME280;885;42.626;23.200;2023-02-24T01:57:45;166719.59;;;5.80;100.00
1776;BME280;885;42.626;23.200;2023-02-24T02:00:14;166777.38;;;6.01;100.00
1776;BME280;885;42.626;23.200;2023-02-24T02:02:59;166793.84;;;6.07;100.00
1776;BME280;885;42.626;23.200;2023-02-24T02:05:27;166813.06;;;6.14;100.00
1776;BME280;885;42.626;23.200;2023-02-24T02:07:56;166841.94;;;6.24;100.00
1776;BME280;885;42.626;23.200;2023-02-24T02:10:23;166839.22;;;6.23;100.00
1776;BME280;885;42.626;23.200;2023-02-24T02:12:53;166782.88;;;6.03;100.00
1776;BME280;885;42.626;23.200;2023-02-24T02:18:49;166829.59;;;6.20;100.00
1776;BME280;885;42.626;23.200;2023-02-24T02:24:48;166883.19;;;6.39;100.00
1776;BME280;885;42.626;23.200;2023-02-24T02:27:49;166839.22;;;6.23;100.00
1776;BME280;885;42.626;23.200;2023-02-24T02:30:47;166859.81;;;6.31;100.00
1776;BME280;885;42.626;23.200;2023-02-24T02:34:02;166832.31;;;6.21;100.00
1776;BME280;885;42.626;23.200;2023-02-24T02:36:37;166876.31;;;6.37;100.00
1776;BME280;885;42.626;23.200;2023-02-24T02:39:11;166833.72;;;6.21;100.00
1776;BME280;885;42.626;23.200;2023-02-24T02:41:47;166866.69;;;6.33;100.00
1776;BME280;885;42.626;23.200;2023-02-24T02:44:21;166891.44;;;6.43;100.00
1776;BME280;885;42.626;23.200;2023-02-24T02:46:55;166916.16;;;6.52;100.00
1776;BME280;885;42.626;23.200;2023-02-24T02:49:29;166918.94;;;6.53;100.00
1776;BME280;885;42.626;23.200;2023-02-24T02:52:02;166916.16;;;6.52;100.00
1776;BME280;885;42.626;23.200;2023-02-24T02:54:36;166771.88;;;5.99;100.00
1776;BME280;885;42.626;23.200;2023-02-24T02:57:08;166777.38;;;6.01;100.00
1776;BME280;885;42.626;23.200;2023-02-24T02:59:42;166803.47;;;6.10;100.00
1776;BME280;885;42.626;23.200;2023-02-24T03:02:15;166806.22;;;6.11;100.00
1776;BME280;885;42.626;23.200;2023-02-24T03:04:48;166777.38;;;6.01;100.00
1776;BME280;885;42.626;23.200;2023-02-24T03:07:20;166765.00;;;5.96;100.00
1776;BME280;885;42.626;23.200;2023-02-24T03:09:52;166804.84;;;6.11;100.00
1776;BME280;885;42.626;23.200;2023-02-24T03:12:22;166748.50;;;5.90;100.00
1776;BME280;885;42.626;23.200;2023-02-24T03:14:55;166759.50;;;5.94;100.00
1776;BME280;885;42.626;23.200;2023-02-24T03:17:25;166781.47;;;6.02;100.00
1776;BME280;885;42.626;23.200;2023-02-24T03:19:58;166793.84;;;6.07;100.00
1776;BME280;885;42.626;23.200;2023-02-24T03:22:41;166797.97;;;6.08;100.00
1776;BME280;885;42.626;23.200;2023-02-24T03:25:09;166788.34;;;6.05;100.00
1776;BME280;885;42.626;23.200;2023-02-24T03:27:41;166760.88;;;5.95;100.00
1776;BME280;885;42.626;23.200;2023-02-24T03:30:16;166773.22;;;5.99;100.00
1776;BME280;885;42.626;23.200;2023-02-24T03:32:50;166803.47;;;6.10;100.00
1776;BME280;885;42.626;23.200;2023-02-24T03:35:23;166817.22;;;6.15;100.00
1776;BME280;885;42.626;23.200;2023-02-24T03:37:50;166826.84;;;6.19;100.00
1776;BME280;885;42.626;23.200;2023-02-24T03:40:20;166813.06;;;6.14;100.00
1776;BME280;885;42.626;23.200;2023-02-24T03:42:57;166759.50;;;5.94;100.00
1776;BME280;885;42.626;23.200;2023-02-24T03:45:30;166762.22;;;5.95;100.00
1776;BME280;885;42.626;23.200;2023-02-24T03:48:00;166730.63;;;5.84;100.00
1776;BME280;885;42.626;23.200;2023-02-24T03:50:30;166777.38;;;6.01;100.00
1776;BME280;885;42.626;23.200;2023-02-24T03:53:06;166806.22;;;6.11;100.00
1776;BME280;885;42.626;23.200;2023-02-24T03:55:45;166754.00;;;5.92;100.00
1776;BME280;885;42.626;23.200;2023-02-24T03:58:29;166701.72;;;5.73;100.00
1776;BME280;885;42.626;23.200;2023-02-24T04:01:09;166720.97;;;5.80;100.00
1776;BME280;885;42.626;23.200;2023-02-24T04:03:45;166756.72;;;5.93;100.00
1776;BME280;885;42.626;23.200;2023-02-24T04:06:20;166807.56;;;6.12;100.00
1776;BME280;885;42.626;23.200;2023-02-24T04:09:00;166829.59;;;6.20;100.00
1776;BME280;885;42.626;23.200;2023-02-24T04:11:33;166846.09;;;6.26;100.00
1776;BME280;885;42.626;23.200;2023-02-24T04:14:05;166807.56;;;6.12;100.00
1776;BME280;885;42.626;23.200;2023-02-24T04:16:38;166818.56;;;6.16;100.00
1776;BME280;885;42.626;23.200;2023-02-24T04:19:10;166832.31;;;6.21;100.00
1776;BME280;885;42.626;23.200;2023-02-24T04:21:42;166825.44;;;6.18;100.00
1776;BME280;885;42.626;23.200;2023-02-24T04:24:13;166752.63;;;5.92;100.00
1776;BME280;885;42.626;23.200;2023-02-24T04:26:43;166752.63;;;5.92;100.00
1776;BME280;885;42.626;23.200;2023-02-24T04:29:14;166763.59;;;5.96;100.00
1776;BME280;885;42.626;23.200;2023-02-24T04:31:45;166808.97;;;6.12;100.00
1776;BME280;885;42.626;23.200;2023-02-24T04:34:14;166839.22;;;6.23;100.00
1776;BME280;885;42.626;23.200;2023-02-24T04:36:46;166832.31;;;6.21;100.00
1776;BME280;885;42.626;23.200;2023-02-24T04:39:15;166825.44;;;6.18;100.00
1776;BME280;885;42.626;23.200;2023-02-24T04:41:44;166839.22;;;6.23;100.00
1776;BME280;885;42.626;23.200;2023-02-24T04:44:14;166855.69;;;6.29;100.00
1776;BME280;885;42.626;23.200;2023-02-24T04:46:41;166863.97;;;6.32;100.00
1776;BME280;885;42.626;23.200;2023-02-24T04:49:08;166770.50;;;5.98;100.00
1776;BME280;885;42.626;23.200;2023-02-24T04:51:35;166740.25;;;5.87;100.00
1776;BME280;885;42.626;23.200;2023-02-24T04:54:08;166770.50;;;5.98;100.00
1776;BME280;885;42.626;23.200;2023-02-24T04:56:35;166789.69;;;6.05;100.00
1776;BME280;885;42.626;23.200;2023-02-24T04:59:05;166766.38;;;5.97;100.00
1776;BME280;885;42.626;23.200;2023-02-24T05:01:34;166754.00;;;5.92;100.00
1776;BME280;885;42.626;23.200;2023-02-24T05:04:04;166778.72;;;6.01;100.00
1776;BME280;885;42.626;23.200;2023-02-24T05:06:31;166804.84;;;6.11;100.00
1776;BME280;885;42.626;23.200;2023-02-24T05:08:57;166839.22;;;6.23;100.00
1776;BME280;885;42.626;23.200;2023-02-24T05:11:27;166863.97;;;6.32;100.00
1776;BME280;885;42.626;23.200;2023-02-24T05:13:59;166876.31;;;6.37;100.00
1776;BME280;885;42.626;23.200;2023-02-24T05:16:28;166872.19;;;6.35;100.00
1776;BME280;885;42.626;23.200;2023-02-24T05:18:56;166902.44;;;6.47;100.00
1776;BME280;885;42.626;23.200;2023-02-24T05:21:36;166836.44;;;6.22;100.00
1776;BME280;885;42.626;23.200;2023-02-24T05:24:03;166773.22;;;5.99;100.00
1776;BME280;885;42.626;23.200;2023-02-24T05:26:35;166796.56;;;6.08;100.00
1776;BME280;885;42.626;23.200;2023-02-24T05:29:04;166785.59;;;6.04;100.00
1776;BME280;885;42.626;23.200;2023-02-24T05:31:32;166817.22;;;6.15;100.00
1776;BME280;885;42.626;23.200;2023-02-24T05:34:01;166817.22;;;6.15;100.00
1776;BME280;885;42.626;23.200;2023-02-24T05:36:30;166841.94;;;6.24;100.00
1776;BME280;885;42.626;23.200;2023-02-24T05:38:58;166870.81;;;6.35;100.00
1776;BME280;885;42.626;23.200;2023-02-24T05:41:33;166850.22;;;6.27;100.00
1776;BME280;885;42.626;23.200;2023-02-24T05:44:05;166814.44;;;6.14;100.00
1776;BME280;885;42.626;23.200;2023-02-24T05:46:35;166839.22;;;6.23;100.00
1776;BME280;885;42.626;23.200;2023-02-24T05:49:04;166854.31;;;6.29;100.00
1776;BME280;885;42.626;23.200;2023-02-24T05:51:35;166804.84;;;6.11;100.00
1776;BME280;885;42.626;23.200;2023-02-24T05:54:04;166833.72;;;6.21;100.00
1776;BME280;885;42.626;23.200;2023-02-24T05:56:35;166840.59;;;6.24;100.00
1776;BME280;885;42.626;23.200;2023-02-24T05:59:04;166830.94;;;6.20;100.00
1776;BME280;885;42.626;23.200;2023-02-24T06:01:35;166862.59;;;6.32;100.00
1776;BME280;885;42.626;23.200;2023-02-24T06:04:04;166872.19;;;6.35;100.00
1776;BME280;885;42.626;23.200;2023-02-24T06:06:32;166892.78;;;6.43;100.00
1776;BME280;885;42.626;23.200;2023-02-24T06:09:01;166906.56;;;6.48;100.00
1776;BME280;885;42.626;23.200;2023-02-24T06:11:33;166935.44;;;6.59;100.00
1776;BME280;885;42.626;23.200;2023-02-24T06:14:00;166969.81;;;6.71;100.00
1776;BME280;885;42.626;23.200;2023-02-24T06:16:27;166982.19;;;6.76;100.00
1776;BME280;885;42.626;23.200;2023-02-24T06:18:55;166987.69;;;6.78;100.00
1776;BME280;885;42.626;23.200;2023-02-24T06:21:22;166935.44;;;6.59;100.00
1776;BME280;885;42.626;23.200;2023-02-24T06:23:50;166943.72;;;6.62;100.00
1776;BME280;885;42.626;23.200;2023-02-24T06:26:17;166928.53;;;6.56;100.00
1776;BME280;885;42.626;23.200;2023-02-24T06:28:47;166896.94;;;6.45;100.00
1776;BME280;885;42.626;23.200;2023-02-24T06:31:18;166848.81;;;6.27;100.00
1776;BME280;885;42.626;23.200;2023-02-24T06:33:45;166835.09;;;6.22;100.00
1776;BME280;885;42.626;23.200;2023-02-24T06:36:12;166847.44;;;6.26;100.00
1776;BME280;885;42.626;23.200;2023-02-24T06:38:40;166868.06;;;6.34;100.00
1776;BME280;885;42.626;23.200;2023-02-24T06:41:07;166924.44;;;6.55;100.00
1776;BME280;885;42.626;23.200;2023-02-24T06:43:36;166956.03;;;6.66;100.00
1776;BME280;885;42.626;23.200;2023-02-24T06:46:06;166982.19;;;6.76;100.00
1776;BME280;885;42.626;23.200;2023-02-24T06:48:33;167015.19;;;6.88;100.00
1776;BME280;885;42.626;23.200;2023-02-24T06:51:04;167002.78;;;6.83;100.00
1776;BME280;885;42.626;23.200;2023-02-24T06:53:32;166995.91;;;6.81;100.00
1776;BME280;885;42.626;23.200;2023-02-24T06:56:03;166994.56;;;6.80;100.00
1776;BME280;885;42.626;23.200;2023-02-24T06:58:39;166946.44;;;6.63;100.00
1776;BME280;885;42.626;23.200;2023-02-24T07:01:10;166990.41;;;6.79;100.00
1776;BME280;885;42.626;23.200;2023-02-24T07:03:37;166987.69;;;6.78;100.00
1776;BME280;885;42.626;23.200;2023-02-24T07:06:12;167008.28;;;6.85;100.00
1776;BME280;885;42.626;23.200;2023-02-24T07:08:57;167053.69;;;7.02;100.00
1776;BME280;885;42.626;23.200;2023-02-24T07:11:27;167071.56;;;7.08;100.00
1776;BME280;885;42.626;23.200;2023-02-24T07:13:54;167094.97;;;7.17;100.00
1776;BME280;885;42.626;23.200;2023-02-24T07:16:23;167137.63;;;7.33;100.00
1776;BME280;885;42.626;23.200;2023-02-24T07:18:53;167183.03;;;7.49;100.00
1776;BME280;885;42.626;23.200;2023-02-24T07:21:22;167228.44;;;7.66;100.00
1776;BME280;885;42.626;23.200;2023-02-24T07:23:49;167232.53;;;7.67;100.00
1776;BME280;885;42.626;23.200;2023-02-24T07:26:22;167225.66;;;7.65;100.00
1776;BME280;885;42.626;23.200;2023-02-24T07:28:50;167221.53;;;7.63;100.00
1776;BME280;885;42.626;23.200;2023-02-24T07:31:20;167216.03;;;7.61;100.00
1776;BME280;885;42.626;23.200;2023-02-24T07:33:51;167213.31;;;7.60;100.00
1776;BME280;885;42.626;23.200;2023-02-24T07:36:20;167251.81;;;7.74;100.00
1776;BME280;885;42.626;23.200;2023-02-24T07:38:50;167216.03;;;7.61;100.00
1776;BME280;885;42.626;23.200;2023-02-24T07:41:19;167156.84;;;7.40;100.00
1776;BME280;885;42.626;23.200;2023-02-24T07:43:50;167155.53;;;7.39;100.00
1776;BME280;885;42.626;23.200;2023-02-24T07:46:19;167200.91;;;7.56;100.00
1776;BME280;885;42.626;23.200;2023-02-24T07:48:51;167195.41;;;7.54;100.00
1776;BME280;885;42.626;23.200;2023-02-24T07:51:19;167123.84;;;7.28;100.00
1776;BME280;885;42.626;23.200;2023-02-24T07:53:48;167137.63;;;7.33;100.00
1776;BME280;885;42.626;23.200;2023-02-24T07:56:15;167159.63;;;7.41;100.00
1776;BME280;885;42.626;23.200;2023-02-24T07:58:43;167170.63;;;7.45;100.00
1776;BME280;885;42.626;23.200;2023-02-24T08:01:10;167218.81;;;7.62;100.00
1776;BME280;885;42.626;23.200;2023-02-24T08:03:47;167240.81;;;7.70;100.00
1776;BME280;885;42.626;23.200;2023-02-24T08:06:16;167194.03;;;7.53;100.00
1776;BME280;885;42.626;23.200;2023-02-24T08:08:52;167214.63;;;7.61;100.00
1776;BME280;885;42.626;23.200;2023-02-24T08:11:43;167282.06;;;7.85;100.00
1776;BME280;885;42.626;23.200;2023-02-24T08:14:12;167378.47;;;8.21;100.00
1776;BME280;885;42.626;23.200;2023-02-24T08:16:40;167441.84;;;8.44;100.00
1776;BME280;885;42.626;23.200;2023-02-24T08:19:09;167496.91;;;8.64;100.00
1776;BME280;885;42.626;23.200;2023-02-24T08:21:39;167524.44;;;8.74;100.00
1776;BME280;885;42.626;23.200;2023-02-24T08:24:13;167580.91;;;8.95;100.00
1776;BME280;885;42.626;23.200;2023-02-24T08:26:43;167593.31;;;8.99;100.00
1776;BME280;885;42.626;23.200;2023-02-24T08:29:10;167633.25;;;9.14;100.00
1776;BME280;885;42.626;23.200;2023-02-24T08:31:37;167671.88;;;9.28;100.00
1776;BME280;885;42.626;23.200;2023-02-24T08:34:04;167691.13;;;9.35;100.00
1776;BME280;885;42.626;23.200;2023-02-24T08:36:31;167695.25;;;9.36;100.00
1776;BME280;885;42.626;23.200;2023-02-24T08:38:59;167710.44;;;9.42;100.00
1776;BME280;885;42.626;23.200;2023-02-24T08:41:25;167728.38;;;9.48;100.00
1776;BME280;885;42.626;23.200;2023-02-24T08:44:11;167718.69;;;9.45;100.00
1776;BME280;885;42.626;23.200;2023-02-24T08:46:41;167725.59;;;9.47;100.00
1776;BME280;885;42.626;23.200;2023-02-24T08:49:09;167728.38;;;9.48;100.00
1776;BME280;885;42.626;23.200;2023-02-24T08:51:38;167718.69;;;9.45;100.00
1776;BME280;885;42.626;23.200;2023-02-24T08:54:11;167689.75;;;9.34;100.00
1776;BME280;885;42.626;23.200;2023-02-24T08:56:41;167717.34;;;9.44;100.00
1776;BME280;885;42.626;23.200;2023-02-24T08:59:15;167714.56;;;9.43;100.00
1776;BME280;885;42.626;23.200;2023-02-24T09:02:04;167733.88;;;9.50;100.00
1776;BME280;885;42.626;23.200;2023-02-24T09:04:44;167765.56;;;9.62;100.00
1776;BME280;885;42.626;23.200;2023-02-24T09:07:15;167783.47;;;9.69;100.00
1776;BME280;885;42.626;23.200;2023-02-24T09:09:43;167779.34;;;9.67;100.00
1776;BME280;885;42.626;23.200;2023-02-24T09:12:11;167784.88;;;9.69;100.00
1776;BME280;885;42.626;23.200;2023-02-24T09:14:47;167789.00;;;9.71;100.00
1776;BME280;885;42.626;23.200;2023-02-24T09:17:14;167804.13;;;9.76;100.00
1776;BME280;885;42.626;23.200;2023-02-24T09:19:46;167794.50;;;9.73;100.00
1776;BME280;885;42.626;23.200;2023-02-24T09:22:31;167852.41;;;9.94;100.00
1776;BME280;885;42.626;23.200;2023-02-24T09:25:10;167877.22;;;10.03;100.00
1776;BME280;885;42.626;23.200;2023-02-24T09:27:43;167864.81;;;9.98;100.00
1776;BME280;885;42.626;23.200;2023-02-24T09:33:03;167918.66;;;10.18;100.00
1776;BME280;885;42.626;23.200;2023-02-24T09:35:30;167860.69;;;9.97;99.00
1776;BME280;885;42.626;23.200;2023-02-24T09:38:01;167842.75;;;9.90;100.00
1776;BME280;885;42.626;23.200;2023-02-24T09:40:32;167839.97;;;9.89;100.00
1776;BME280;885;42.626;23.200;2023-02-24T09:43:15;167808.31;;;9.78;100.00
1776;BME280;885;42.626;23.200;2023-02-24T09:45:51;167855.19;;;9.95;100.00
1776;BME280;885;42.626;23.200;2023-02-24T09:48:29;167911.75;;;10.15;99.78
1776;BME280;885;42.626;23.200;2023-02-24T09:50:58;167884.13;;;10.05;99.86
1776;BME280;885;42.626;23.200;2023-02-24T09:53:29;167892.38;;;10.08;99.28
1776;BME280;885;42.626;23.200;2023-02-24T09:56:10;167893.75;;;10.09;98.53
1776;BME280;885;42.626;23.200;2023-02-24T09:58:42;167885.47;;;10.06;98.24
1776;BME280;885;42.626;23.200;2023-02-24T10:01:43;167906.25;;;10.13;98.83
1776;BME280;885;42.626;23.200;2023-02-24T10:04:24;167890.97;;;10.08;98.00
1776;BME280;885;42.626;23.200;2023-02-24T10:07:02;167885.47;;;10.06;97.74
1776;BME280;885;42.626;23.200;2023-02-24T10:09:33;167925.50;;;10.20;97.65
1776;BME280;885;42.626;23.200;2023-02-24T10:12:11;167910.34;;;10.15;97.48
1776;BME280;885;42.626;23.200;2023-02-24T10:14:45;167900.72;;;10.11;98.04
1776;BME280;885;42.626;23.200;2023-02-24T10:17:18;167948.94;;;10.29;96.31
1776;BME280;885;42.626;23.200;2023-02-24T10:19:48;167969.66;;;10.36;95.54
1776;BME280;885;42.626;23.200;2023-02-24T10:22:23;167921.38;;;10.19;96.30
1776;BME280;885;42.626;23.200;2023-02-24T10:25:00;167907.56;;;10.14;96.74
1776;BME280;885;42.626;23.200;2023-02-24T10:27:43;167915.88;;;10.17;96.65
1776;BME280;885;42.626;23.200;2023-02-24T10:30:27;167910.34;;;10.15;94.94
1776;BME280;885;42.626;23.200;2023-02-24T10:33:13;167918.66;;;10.18;95.26
1776;BME280;885;42.626;23.200;2023-02-24T10:35:42;167913.09;;;10.16;94.96
1776;BME280;885;42.626;23.200;2023-02-24T10:38:09;167948.84;;;10.30;94.31
1776;BME280;885;42.626;23.200;2023-02-24T10:40:43;168001.25;;;10.49;93.51
1776;BME280;885;42.626;23.200;2023-02-24T10:43:17;168028.81;;;10.59;92.34
1776;BME280;885;42.626;23.200;2023-02-24T10:45:45;168061.91;;;10.71;92.02
1776;BME280;885;42.626;23.200;2023-02-24T10:48:17;168074.31;;;10.76;91.75
1776;BME280;885;42.626;23.200;2023-02-24T10:50:50;168034.34;;;10.61;92.47
1776;BME280;885;42.626;23.200;2023-02-24T10:53:21;168028.81;;;10.59;93.07
1776;BME280;885;42.626;23.200;2023-02-24T10:56:00;168107.41;;;10.88;92.20
1776;BME280;885;42.626;23.200;2023-02-24T10:59:01;167784.31;;;11.05;90.07
1776;BME280;885;42.626;23.200;2023-02-24T11:01:44;167858.63;;;11.33;89.27
1776;BME280;885;42.626;23.200;2023-02-24T11:04:20;167569.47;;;11.63;86.02
1776;BME280;885;42.626;23.200;2023-02-24T11:07:12;167638.22;;;11.88;86.03
1776;BME280;885;42.626;23.200;2023-02-24T11:10:01;167399.38;;;12.37;83.47
1776;BME280;885;42.626;23.200;2023-02-24T11:12:36;166082.75;;;11.63;84.88
1776;BME280;885;42.626;23.200;2023-02-24T11:15:27;165303.03;;;11.49;84.41
1776;BME280;885;42.626;23.200;2023-02-24T11:18:16;165773.69;;;11.86;83.94
1776;BME280;885;42.626;23.200;2023-02-24T11:20:46;165364.06;;;11.72;84.29
1776;BME280;885;42.626;23.200;2023-02-24T11:23:18;164308.59;;;11.94;81.42
1776;BME280;885;42.626;23.200;2023-02-24T11:25:47;165196.69;;;12.48;81.53
1776;BME280;885;42.626;23.200;2023-02-24T11:28:33;164161.25;;;12.78;78.43
1776;BME280;885;42.626;23.200;2023-02-24T11:31:12;163169.16;;;13.25;74.62
1776;BME280;885;42.626;23.200;2023-02-24T11:33:50;160912.06;;;13.16;73.60
1776;BME280;885;42.626;23.200;2023-02-24T11:36:28;160081.53;;;12.83;75.31
1776;BME280;885;42.626;23.200;2023-02-24T11:39:04;158439.13;;;12.22;75.72
1776;BME280;885;42.626;23.200;2023-02-24T11:41:37;158436.50;;;12.21;77.71
1776;BME280;885;42.626;23.200;2023-02-24T11:44:10;160507.16;;;13.03;77.61
1776;BME280;885;42.626;23.200;2023-02-24T11:46:43;159658.88;;;12.63;78.88
1776;BME280;885;42.626;23.200;2023-02-24T11:49:22;158807.81;;;12.21;79.39
1776;BME280;885;42.626;23.200;2023-02-24T11:51:53;157964.47;;;11.82;80.72
1776;BME280;885;42.626;23.200;2023-02-24T11:54:21;157999.38;;;11.95;79.55
1776;BME280;885;42.626;23.200;2023-02-24T11:56:52;158437.81;;;12.22;79.54
1776;BME280;885;42.626;23.200;2023-02-24T11:59:28;158433.94;;;12.20;79.91
1776;BME280;885;42.626;23.200;2023-02-24T12:02:01;158026.50;;;12.06;80.57
1776;BME280;885;42.626;23.200;2023-02-24T12:04:35;157603.78;;;11.86;81.20
1776;BME280;885;42.626;23.200;2023-02-24T12:07:06;157605.06;;;11.86;81.52
1776;BME280;885;42.626;23.200;2023-02-24T12:09:40;158039.41;;;12.11;81.13
1776;BME280;885;42.626;23.200;2023-02-24T12:12:12;157232.78;;;11.86;81.11
1776;BME280;885;42.626;23.200;2023-02-24T12:14:44;157633.44;;;11.98;80.97
1776;BME280;885;42.626;23.200;2023-02-24T12:17:20;158047.16;;;12.14;80.47
1776;BME280;885;42.626;23.200;2023-02-24T12:19:56;157728.81;;;12.35;79.42
1776;BME280;885;42.626;23.200;2023-02-24T12:22:28;157758.47;;;12.46;78.25
1776;BME280;885;42.626;23.200;2023-02-24T12:24:56;158186.75;;;12.68;78.48
1776;BME280;885;42.626;23.200;2023-02-24T12:27:35;157464.31;;;12.76;76.82
1776;BME280;885;42.626;23.200;2023-02-24T12:30:21;157126.19;;;12.90;75.82
1776;BME280;885;42.626;23.200;2023-02-24T12:33:11;157086.38;;;12.74;77.18
1776;BME280;885;42.626;23.200;2023-02-24T12:35:46;156711.06;;;12.72;77.30
1776;BME280;885;42.626;23.200;2023-02-24T12:38:37;155342.84;;;11.72;82.77
1776;BME280;885;42.626;23.200;2023-02-24T12:41:22;156019.19;;;11.46;85.28
1776;BME280;885;42.626;23.200;2023-02-24T12:43:56;155599.00;;;11.27;85.55
1776;BME280;885;42.626;23.200;2023-02-24T12:46:27;155928.63;;;11.10;86.65
1776;BME280;885;42.626;23.200;2023-02-24T12:49:11;157155.63;;;11.56;86.15
1776;BME280;885;42.626;23.200;2023-02-24T12:51:53;158078.19;;;12.26;81.16
1776;BME280;885;42.626;23.200;2023-02-24T12:54:29;160249.13;;;13.47;80.10
1776;BME280;885;42.626;23.200;2023-02-24T12:57:09;159699.03;;;14.22;73.79
1776;BME280;885;42.626;23.200;2023-02-24T12:59:38;159382.38;;;14.44;73.23
1776;BME280;885;42.626;23.200;2023-02-24T13:02:09;158650.00;;;14.49;72.07
1776;BME280;885;42.626;23.200;2023-02-24T13:04:49;157619.53;;;14.83;68.65
1776;BME280;885;42.626;23.200;2023-02-24T13:07:46;155603.56;;;14.22;70.55
1776;BME280;885;42.626;23.200;2023-02-24T13:10:23;155163.00;;;13.95;71.45
1776;BME280;885;42.626;23.200;2023-02-24T13:13:02;155160.47;;;13.94;72.11
1776;BME280;885;42.626;23.200;2023-02-24T13:15:32;152725.69;;;13.12;74.41
1776;BME280;885;42.626;23.200;2023-02-24T13:17:59;152995.81;;;12.71;77.71
1776;BME280;885;42.626;23.200;2023-02-24T13:20:30;153380.72;;;12.77;78.40
1776;BME280;885;42.626;23.200;2023-02-24T13:22:58;152998.31;;;12.72;76.84
1776;BME280;885;42.626;23.200;2023-02-24T13:25:29;153078.31;;;13.05;74.71
1776;BME280;885;42.626;23.200;2023-02-24T13:27:59;151514.16;;;12.72;73.76
1776;BME280;885;42.626;23.200;2023-02-24T13:30:35;152266.13;;;12.76;75.44
1776;BME280;885;42.626;23.200;2023-02-24T13:33:06;152679.56;;;12.94;76.22
1776;BME280;885;42.626;23.200;2023-02-24T13:35:46;152664.63;;;12.88;76.46
1776;BME280;885;42.626;23.200;2023-02-24T13:38:24;152310.84;;;12.95;74.53
1776;BME280;885;42.626;23.200;2023-02-24T13:40:51;152292.22;;;12.87;75.83
1776;BME280;885;42.626;23.200;2023-02-24T13:43:23;150745.19;;;12.61;74.43
1776;BME280;885;42.626;23.200;2023-02-24T13:45:57;149591.34;;;12.44;72.35
1776;BME280;885;42.626;23.200;2023-02-24T13:48:47;149674.34;;;12.78;70.71